createdAt,value
2023-04-20T00:01:16.349Z,98531.97
2023-04-20T00:06:22.638Z,98524.91
2023-04-20T00:11:26.662Z,98520.84
2023-04-20T00:16:30.771Z,98529.66
2023-04-20T00:21:36.718Z,98521.94
2023-04-20T00:26:40.621Z,98528.09
2023-04-20T00:31:44.970Z,98519.34
2023-04-20T00:36:52.815Z,98517.97
2023-04-20T00:42:04.295Z,98513.78
2023-04-20T00:47:08.561Z,98511.84
2023-04-20T00:52:14.248Z,98511.56
2023-04-20T00:57:20.047Z,98511.31
2023-04-20T01:02:24.172Z,98512.16
2023-04-20T01:07:30.265Z,98505.84
2023-04-20T01:12:34.488Z,98505.84
2023-04-20T01:17:40.090Z,98502.69
2023-04-20T01:22:48.814Z,98507.88
2023-04-20T01:27:53.022Z,98491.47
2023-04-20T01:32:57.247Z,98498.50
2023-04-20T01:38:03.232Z,98501.47
2023-04-20T01:43:08.264Z,98495.91
2023-04-20T01:48:12.541Z,98504.06
2023-04-20T01:53:18.173Z,98495.50
2023-04-20T01:58:23.927Z,98493.09
2023-04-20T02:03:28.166Z,98502.81
2023-04-20T02:08:34.559Z,98493.31
2023-04-20T02:13:38.952Z,98497.34
2023-04-20T02:18:42.968Z,98495.50
2023-04-20T02:23:48.814Z,98502.75
2023-04-20T02:28:52.979Z,98497.88
2023-04-20T02:33:56.778Z,98508.47
2023-04-20T02:39:05.998Z,98506.81
2023-04-20T02:44:11.313Z,98507.88
2023-04-20T02:49:16.335Z,98508.41
2023-04-20T02:54:23.239Z,98512.31
2023-04-20T02:59:28.154Z,98504.28
2023-04-20T03:04:40.371Z,98495.41
2023-04-20T03:09:56.180Z,98503.28
2023-04-20T03:15:13.981Z,98506.66
2023-04-20T03:20:30.982Z,98504.44
2023-04-20T03:25:37.255Z,98504.59
2023-04-20T03:30:46.258Z,98514.00
2023-04-20T03:35:53.280Z,98526.72
2023-04-20T03:40:59.646Z,98525.75
2023-04-20T03:46:04.866Z,98525.97
2023-04-20T03:51:08.733Z,98530.25
2023-04-20T03:56:16.420Z,98534.44
2023-04-20T04:01:20.951Z,98532.28
2023-04-20T04:06:27.581Z,98538.06
2023-04-20T04:11:33.443Z,98541.63
2023-04-20T04:16:38.251Z,98541.31
2023-04-20T04:21:42.608Z,98551.72
2023-04-20T04:26:49.814Z,98544.75
2023-04-20T04:31:55.021Z,98533.16
2023-04-20T04:36:59.212Z,98539.19
2023-04-20T04:42:17.503Z,98540.94
2023-04-20T04:47:23.043Z,98544.44
2023-04-20T04:52:28.903Z,98553.81
2023-04-20T04:57:35.223Z,98548.47
2023-04-20T05:02:39.961Z,98554.69
2023-04-20T05:07:44.372Z,98562.53
2023-04-20T05:12:50.076Z,98557.56
2023-04-20T05:17:54.771Z,98566.78
2023-04-20T05:22:58.792Z,98575.16
2023-04-20T05:28:04.048Z,98575.25
2023-04-20T05:33:07.951Z,98582.38
2023-04-20T05:38:11.812Z,98585.66
2023-04-20T05:43:17.795Z,98591.13
2023-04-20T05:48:22.109Z,98588.69
2023-04-20T05:53:26.943Z,98579.44
2023-04-20T05:58:33.452Z,98580.84
2023-04-20T06:03:38.080Z,98587.69
2023-04-20T06:08:42.840Z,98588.13
2023-04-20T06:13:48.251Z,98586.19
2023-04-20T06:18:52.633Z,98584.41
2023-04-20T06:23:56.464Z,98592.38
2023-04-20T06:29:02.064Z,98592.53
2023-04-20T06:34:06.405Z,98602.41
2023-04-20T06:39:11.377Z,98602.28
2023-04-20T06:44:16.758Z,98605.56
2023-04-20T06:49:20.598Z,98604.75
2023-04-20T06:54:24.497Z,98607.41
2023-04-20T06:59:30.002Z,98600.84
2023-04-20T07:04:34.108Z,98609.19
2023-04-20T07:09:38.238Z,98609.38
2023-04-20T07:14:43.387Z,98611.38
2023-04-20T07:19:47.574Z,98613.19
2023-04-20T07:24:51.685Z,98619.19
2023-04-20T07:29:57.598Z,98625.88
2023-04-20T07:35:01.880Z,98628.34
2023-04-20T07:40:07.126Z,98626.38
2023-04-20T07:45:14.595Z,98624.72
2023-04-20T07:50:18.685Z,98625.22
2023-04-20T07:55:22.953Z,98631.84
2023-04-20T08:00:28.882Z,98637.38
2023-04-20T08:05:33.713Z,98634.28
2023-04-20T08:10:38.008Z,98639.53
2023-04-20T08:15:43.480Z,98640.84
2023-04-20T08:20:47.324Z,98641.22
2023-04-20T08:25:51.128Z,98650.50
2023-04-20T08:30:57.423Z,98652.63
2023-04-20T08:36:01.319Z,98643.09
2023-04-20T08:41:05.383Z,98653.66
2023-04-20T08:46:10.887Z,98652.00
2023-04-20T08:51:16.778Z,98644.97
2023-04-20T08:56:21.033Z,98650.41
2023-04-20T09:01:35.592Z,98644.69
2023-04-20T09:06:44.312Z,98648.25
2023-04-20T09:11:48.762Z,98645.28
2023-04-20T09:16:57.236Z,98650.81
2023-04-20T09:22:03.997Z,98657.06
2023-04-20T09:27:16.358Z,98661.69
2023-04-20T09:32:25.772Z,98657.06
2023-04-20T09:37:29.780Z,98656.72
2023-04-20T09:42:33.857Z,98655.22
2023-04-20T09:47:41.900Z,98658.38
2023-04-20T09:52:49.178Z,98652.56
2023-04-20T09:57:53.513Z,98666.53
2023-04-20T10:02:59.261Z,98662.13
2023-04-20T10:08:04.001Z,98656.13
2023-04-20T10:13:08.239Z,98661.47
2023-04-20T10:18:25.074Z,98655.44
2023-04-20T10:23:29.575Z,98645.78
2023-04-20T10:28:40.926Z,98648.84
2023-04-20T10:33:53.947Z,98637.13
2023-04-20T10:38:58.862Z,98634.50
2023-04-20T10:44:09.730Z,98641.38
2023-04-20T10:49:15.446Z,98633.69
2023-04-20T10:54:20.075Z,98634.69
2023-04-20T10:59:25.632Z,98626.94
2023-04-20T11:04:34.418Z,98624.38
2023-04-20T11:09:38.712Z,98622.50
2023-04-20T11:14:52.955Z,98626.25
2023-04-20T11:20:05.851Z,98630.91
2023-04-20T11:25:11.446Z,98624.03
2023-04-20T11:30:15.835Z,98627.16
2023-04-20T11:35:21.849Z,98622.56
2023-04-20T11:40:28.087Z,98622.22
2023-04-20T11:45:36.307Z,98621.97
2023-04-20T11:50:42.676Z,98629.16
2023-04-20T11:55:46.825Z,98620.06
2023-04-20T12:00:51.110Z,98621.97
2023-04-20T12:05:56.598Z,98628.16
2023-04-20T12:11:00.687Z,98621.22
2023-04-20T12:16:04.731Z,98628.03
2023-04-20T12:21:10.183Z,98616.00
2023-04-20T12:26:14.333Z,98613.88
2023-04-20T12:31:18.429Z,98606.34
2023-04-20T12:36:23.949Z,98610.34
2023-04-20T12:41:28.397Z,98598.69
2023-04-20T12:46:32.523Z,98612.16
2023-04-20T12:51:38.148Z,98599.72
2023-04-20T12:56:42.511Z,98595.53
2023-04-20T13:01:48.147Z,98594.97
2023-04-20T13:06:53.716Z,98580.59
2023-04-20T13:11:57.899Z,98585.47
2023-04-20T13:17:02.720Z,98577.41
2023-04-20T13:22:08.198Z,98577.81
2023-04-20T13:27:12.312Z,98587.75
2023-04-20T13:32:16.141Z,98585.56
2023-04-20T13:37:21.900Z,98596.28
2023-04-20T13:42:25.801Z,98593.41
2023-04-20T13:47:30.524Z,98579.97
2023-04-20T13:52:35.927Z,98589.47
2023-04-20T13:57:39.772Z,98587.13
2023-04-20T14:02:43.956Z,98590.91
2023-04-20T14:07:49.234Z,98576.22
2023-04-20T14:12:53.294Z,98590.44
2023-04-20T14:17:57.182Z,98592.84
2023-04-20T14:23:02.995Z,98587.25
2023-04-20T14:28:07.115Z,98587.72
2023-04-20T14:33:11.502Z,98576.47
2023-04-20T14:38:17.081Z,98575.81
2023-04-20T14:43:20.938Z,98574.38
2023-04-20T14:48:26.673Z,98573.66
2023-04-20T14:53:33.122Z,98568.28
2023-04-20T14:58:37.471Z,98557.69
2023-04-20T15:03:41.978Z,98564.94
2023-04-20T15:08:47.738Z,98570.41
2023-04-20T15:13:52.630Z,98572.50
2023-04-20T15:18:56.782Z,98575.34
2023-04-20T15:24:02.118Z,98565.41
2023-04-20T15:29:06.620Z,98564.41
2023-04-20T15:34:11.461Z,98557.44
2023-04-20T15:39:17.241Z,98577.56
2023-04-20T15:44:21.090Z,98572.63
2023-04-20T15:49:25.363Z,98567.41
2023-04-20T15:54:31.023Z,98565.41
2023-04-20T15:59:34.833Z,98564.34
2023-04-20T16:04:42.583Z,98562.72
2023-04-20T16:09:48.135Z,98557.00
2023-04-20T16:14:53.846Z,98548.72
2023-04-20T16:19:57.934Z,98555.16
2023-04-20T16:25:03.372Z,98559.81
2023-04-20T16:30:09.161Z,98556.59
2023-04-20T16:35:13.273Z,98557.38
2023-04-20T16:40:20.882Z,98554.69
2023-04-20T16:45:24.884Z,98566.81
2023-04-20T16:50:29.608Z,98557.03
2023-04-20T16:55:35.437Z,98569.56
2023-04-20T17:00:39.677Z,98559.84
2023-04-20T17:05:43.611Z,98562.00
2023-04-20T17:10:49.065Z,98564.44
2023-04-20T17:15:52.992Z,98562.69
2023-04-20T17:20:57.695Z,98555.66
2023-04-20T17:26:03.839Z,98563.66
2023-04-20T17:31:07.696Z,98562.53
2023-04-20T17:36:12.039Z,98560.50
2023-04-20T17:41:18.060Z,98558.22
2023-04-20T17:46:22.332Z,98568.88
2023-04-20T17:51:27.101Z,98558.94
2023-04-20T17:56:32.565Z,98561.22
2023-04-20T18:01:36.851Z,98558.91
2023-04-20T18:06:41.275Z,98560.25
2023-04-20T18:11:46.698Z,98558.34
2023-04-20T18:16:52.077Z,98564.69
2023-04-20T18:21:56.384Z,98571.72
2023-04-20T18:27:02.220Z,98573.31
2023-04-20T18:32:06.237Z,98574.09
2023-04-20T18:37:12.390Z,98578.72
2023-04-20T18:42:18.116Z,98575.78
2023-04-20T18:47:22.312Z,98569.28
2023-04-20T18:52:26.597Z,98576.00
2023-04-20T18:57:32.618Z,98575.53
2023-04-20T19:02:36.952Z,98576.16
2023-04-20T19:07:41.150Z,98569.16
2023-04-20T19:12:46.836Z,98575.31
2023-04-20T19:17:51.212Z,98570.91
2023-04-20T19:22:55.248Z,98566.97
2023-04-20T19:28:00.823Z,98566.59
2023-04-20T19:33:05.885Z,98569.50
2023-04-20T19:38:10.053Z,98564.91
2023-04-20T19:43:16.975Z,98555.09
2023-04-20T19:48:21.110Z,98561.28
2023-04-20T19:53:25.243Z,98564.22
2023-04-20T19:58:30.935Z,98560.50
2023-04-20T20:03:35.394Z,98557.88
2023-04-20T20:08:39.683Z,98554.94
2023-04-20T20:13:44.928Z,98550.38
2023-04-20T20:18:50.647Z,98561.25
2023-04-20T20:23:54.700Z,98551.44
2023-04-20T20:29:00.090Z,98549.72
2023-04-20T20:34:04.012Z,98542.19
2023-04-20T20:39:08.115Z,98541.16
2023-04-20T20:44:14.598Z,98544.00
2023-04-20T20:49:18.897Z,98549.44
2023-04-20T20:54:22.940Z,98543.22
2023-04-20T20:59:28.116Z,98538.09
2023-04-20T21:04:32.537Z,98554.75
2023-04-20T21:09:36.371Z,98542.81
2023-04-20T21:14:41.723Z,98545.72
2023-04-20T21:19:46.000Z,98543.56
2023-04-20T21:24:49.842Z,98554.91
2023-04-20T21:29:55.386Z,98553.88
2023-04-20T21:34:59.790Z,98547.44
2023-04-20T21:40:03.784Z,98550.03
2023-04-20T21:45:10.923Z,98555.53
2023-04-20T21:50:15.193Z,98551.13
2023-04-20T21:55:19.005Z,98551.78
2023-04-20T22:00:25.068Z,98561.22
2023-04-20T22:05:29.404Z,98556.31
2023-04-20T22:10:33.778Z,98557.28
2023-04-20T22:15:39.062Z,98558.94
2023-04-20T22:20:43.184Z,98558.41
2023-04-20T22:25:47.985Z,98565.78
2023-04-20T22:30:53.452Z,98561.09
2023-04-20T22:35:58.007Z,98557.72
2023-04-20T22:41:01.816Z,98558.69
2023-04-20T22:46:07.104Z,98567.16
2023-04-20T22:51:11.053Z,98565.81
2023-04-20T22:56:14.980Z,98563.66
2023-04-20T23:01:20.470Z,98564.25
2023-04-20T23:06:24.666Z,98553.25
2023-04-20T23:11:29.491Z,98550.78
2023-04-20T23:16:35.144Z,98564.78
2023-04-20T23:21:39.969Z,98557.06
2023-04-20T23:26:47.129Z,98558.03
2023-04-20T23:31:52.448Z,98559.28
2023-04-20T23:36:56.786Z,98562.09
2023-04-20T23:42:01.345Z,98565.16
2023-04-20T23:47:07.247Z,98554.28
2023-04-20T23:52:11.313Z,98553.78
2023-04-20T23:57:15.109Z,98550.88
